Newport (Isle of Wight), United Kingdom
Current Conditions -  °F | °C
As of 5:20 PM on Thursday 23 Oct 2014 (Local Time) from EGHI Reporting Station
Broken Clouds Broken Clouds  
Wind Chill: 15°   Ceiling: 1200
Heat Index: 15°   Visibility: 6mi
Dew Point: 13°   Wind: 12mph
Humidity: 88%   Direction: 220°SW
Pressure: 30.06"   Gusts: NA
Location:  50.7°N, 1.29°W
Report Text: EGHI 231620Z 22010KT 9999 BKN012 15/13 Q1018
Loading
Personal Weather Stations






























Interactive Weather Map
Tropical Storm Tracking
New forecast layout! Learn more

10-Day Weather Forecast

Advertisements
Track Severe Weather on mobile